Time;durP1;ratioP1;P1;durP2;ratioP2;P2;SDS_P1;SDS_P2;PMS_P1;PMS_P2;Temp;Humidity;BMP_temperature;BMP_pressure;BME280_temperature;BME280_humidity;BME280_pressure;Samples;Min_cycle;Max_cycle;Signal;HPM_P1;HPM_P2
2022/10/24 00:02:42;;;;;;;5.23;1.93;;;19.00;47.40;;;;;;10381800;28;20234;-68
2022/10/24 00:07:45;;;;;;;4.33;2.03;;;19.00;47.40;;;;;;10382092;28;20234;-68
2022/10/24 00:12:50;;;;;;;4.43;2.00;;;19.10;47.40;;;;;;10388725;28;20773;-68
2022/10/24 00:17:53;;;;;;;5.20;1.87;;;19.00;47.90;;;;;;10390035;28;20797;-68
2022/10/24 00:22:57;;;;;;;5.90;1.90;;;19.00;47.60;;;;;;10384808;28;20229;-68
2022/10/24 00:28:01;;;;;;;3.80;1.50;;;18.90;47.80;;;;;;10392212;28;20234;-68
2022/10/24 00:33:04;;;;;;;3.17;1.60;;;18.90;47.80;;;;;;10384504;28;20229;-68
2022/10/24 00:38:08;;;;;;;4.27;1.40;;;18.80;47.70;;;;;;10387238;28;20240;-68
2022/10/24 00:43:16;;;;;;;2.77;1.53;;;18.70;47.60;;;;;;10388105;28;20712;-69
2022/10/24 00:48:24;;;;;;;4.10;1.60;;;18.70;48.40;;;;;;10391783;28;20233;-68
2022/10/24 00:53:29;;;;;;;3.50;1.90;;;18.60;48.40;;;;;;10391791;28;20763;-68
2022/10/24 00:58:35;;;;;;;6.37;1.70;;;18.60;48.20;;;;;;10387069;28;20253;-68
2022/10/24 01:03:38;;;;;;;2.30;1.50;;;18.50;49.10;;;;;;10385455;28;20240;-68
2022/10/24 01:08:47;;;;;;;3.27;1.30;;;18.50;48.30;;;;;;10387971;28;20723;-68
2022/10/24 01:14:01;;;;;;;2.90;1.30;;;18.50;49.10;;;;;;10384715;28;20700;-68
2022/10/24 01:19:14;;;;;;;3.70;1.40;;;18.40;49.30;;;;;;10386333;28;20692;-68
2022/10/24 01:24:32;;;;;;;2.83;1.20;;;18.50;49.50;;;;;;10387738;28;20645;-68
2022/10/24 01:29:49;;;;;;;2.27;1.30;;;18.40;49.50;;;;;;10382517;28;20237;-68
2022/10/24 01:35:00;;;;;;;2.93;1.40;;;18.30;49.60;;;;;;10381432;28;20234;-68
2022/10/24 01:40:09;;;;;;;2.10;1.10;;;18.30;49.70;;;;;;10387007;28;20695;-68
2022/10/24 01:45:18;;;;;;;4.17;1.40;;;18.20;50.00;;;;;;10384301;28;20245;-68
2022/10/24 01:50:23;;;;;;;2.50;1.33;;;18.30;50.20;;;;;;10383376;28;20249;-68
2022/10/24 01:55:26;;;;;;;4.20;1.30;;;18.20;49.80;;;;;;10385936;28;20822;-68
2022/10/24 02:00:31;;;;;;;2.47;1.40;;;18.30;49.40;;;;;;10381148;28;20596;-68
2022/10/24 02:05:39;;;;;;;2.33;1.33;;;18.20;49.90;;;;;;10377178;28;20257;-72
2022/10/24 02:10:47;;;;;;;3.10;1.50;;;18.30;50.00;;;;;;10384494;28;20233;-72
2022/10/24 02:15:55;;;;;;;4.17;1.60;;;18.30;50.00;;;;;;10379516;28;20229;-72
2022/10/24 02:21:06;;;;;;;4.17;1.50;;;18.30;49.90;;;;;;10383028;28;20234;-68
2022/10/24 02:26:19;;;;;;;3.37;1.50;;;18.30;49.80;;;;;;10387196;28;20744;-68
2022/10/24 02:31:27;;;;;;;1.90;1.30;;;18.30;50.20;;;;;;10380003;28;20234;-68
2022/10/24 02:36:32;;;;;;;3.43;1.50;;;18.30;50.20;;;;;;10386350;28;20241;-68
2022/10/24 02:41:38;;;;;;;3.77;1.50;;;18.30;49.60;;;;;;10376891;28;20728;-68
2022/10/24 02:46:44;;;;;;;4.13;1.70;;;18.30;49.60;;;;;;10384066;28;20609;-68
2022/10/24 02:51:49;;;;;;;1.83;1.40;;;18.30;49.90;;;;;;10382728;28;20648;-68
2022/10/24 02:56:56;;;;;;;4.47;1.80;;;18.40;49.40;;;;;;10384641;28;20716;-68
2022/10/24 03:02:01;;;;;;;4.63;1.83;;;18.40;49.40;;;;;;10378960;28;20238;-68
2022/10/24 03:07:04;;;;;;;2.53;1.63;;;18.40;49.50;;;;;;10385011;28;20234;-68
2022/10/24 03:12:07;;;;;;;4.80;1.53;;;18.40;49.10;;;;;;10383615;28;20646;-68
2022/10/24 03:17:12;;;;;;;3.17;1.40;;;18.40;49.00;;;;;;10383627;28;20230;-68
2022/10/24 03:22:15;;;;;;;4.43;1.80;;;18.40;49.50;;;;;;10380450;28;20711;-68
2022/10/24 03:27:18;;;;;;;3.30;1.70;;;18.40;49.30;;;;;;10378972;28;20603;-68
2022/10/24 03:32:22;;;;;;;3.57;1.50;;;18.30;49.40;;;;;;10383493;28;20233;-68
2022/10/24 03:37:26;;;;;;;4.47;1.40;;;18.30;49.80;;;;;;10380276;28;20242;-68
2022/10/24 03:42:29;;;;;;;5.13;1.70;;;18.40;49.60;;;;;;10382587;28;20230;-68
2022/10/24 03:47:33;;;;;;;4.90;1.67;;;18.40;49.50;;;;;;10388519;28;20230;-68
2022/10/24 03:52:36;;;;;;;5.13;1.50;;;18.40;49.70;;;;;;10388628;28;21074;-68
2022/10/24 03:57:40;;;;;;;3.13;2.30;;;18.50;49.40;;;;;;10389165;28;20711;-68
2022/10/24 04:02:45;;;;;;;3.53;1.90;;;18.50;49.40;;;;;;10388354;28;20229;-68
2022/10/24 04:07:48;;;;;;;4.47;1.80;;;18.50;49.60;;;;;;10386478;28;20233;-68
2022/10/24 04:12:51;;;;;;;3.60;1.93;;;18.40;49.30;;;;;;10387265;28;20612;-68
2022/10/24 04:17:56;;;;;;;3.87;1.77;;;18.40;49.50;;;;;;10391654;28;20229;-68
2022/10/24 04:22:59;;;;;;;2.70;1.63;;;18.40;50.00;;;;;;10390618;28;20315;-68
2022/10/24 04:28:06;;;;;;;3.73;2.40;;;18.30;49.70;;;;;;10387005;28;20689;-68
2022/10/24 04:33:11;;;;;;;6.07;3.13;;;18.40;49.80;;;;;;10386896;28;20230;-69
2022/10/24 04:38:14;;;;;;;6.23;2.07;;;18.30;50.00;;;;;;10388140;28;20234;-69
2022/10/24 04:43:18;;;;;;;4.40;1.87;;;18.40;49.80;;;;;;10388122;28;20229;-72
2022/10/24 04:48:22;;;;;;;4.10;1.70;;;18.30;49.80;;;;;;10389147;28;20234;-68
2022/10/24 04:53:25;;;;;;;3.70;2.57;;;18.30;50.10;;;;;;10386788;28;20227;-68
2022/10/24 04:58:29;;;;;;;5.80;3.00;;;18.30;49.90;;;;;;10388911;28;20283;-68
2022/10/24 05:03:33;;;;;;;3.50;2.20;;;18.30;50.00;;;;;;10390454;28;20231;-68
2022/10/24 05:08:37;;;;;;;3.00;2.10;;;18.20;50.40;;;;;;10386945;28;20636;-68
2022/10/24 05:13:41;;;;;;;3.53;1.73;;;18.10;50.10;;;;;;10387705;28;20237;-68
2022/10/24 05:18:45;;;;;;;3.60;2.10;;;18.10;50.20;;;;;;10388668;28;20225;-68
2022/10/24 05:23:48;;;;;;;5.43;2.00;;;18.20;50.70;;;;;;10362190;28;20237;-69
2022/10/24 05:28:51;;;;;;;3.70;1.60;;;18.20;50.40;;;;;;10396536;28;20228;-68
2022/10/24 05:33:56;;;;;;;4.57;1.60;;;18.10;50.30;;;;;;10385663;28;20328;-68
2022/10/24 05:38:59;;;;;;;6.37;2.13;;;18.10;50.60;;;;;;10386999;28;20234;-68
2022/10/24 05:44:02;;;;;;;3.57;1.83;;;18.20;50.30;;;;;;10385929;28;20237;-68
2022/10/24 05:49:07;;;;;;;3.57;2.40;;;18.20;50.30;;;;;;10383192;28;20288;-68
2022/10/24 05:54:10;;;;;;;4.27;2.00;;;18.20;51.00;;;;;;10385161;28;20226;-68
2022/10/24 05:59:14;;;;;;;2.50;2.07;;;18.20;50.90;;;;;;10383688;28;20241;-68
2022/10/24 06:04:19;;;;;;;6.00;2.40;;;18.20;50.40;;;;;;10387765;28;20234;-68
2022/10/24 06:09:22;;;;;;;3.37;2.10;;;18.20;50.90;;;;;;10379771;28;20237;-68
2022/10/24 06:14:25;;;;;;;4.73;2.00;;;18.20;50.60;;;;;;10380298;28;20289;-68
2022/10/24 06:19:29;;;;;;;4.70;2.17;;;18.20;50.60;;;;;;10383740;28;20869;-68
2022/10/24 06:24:35;;;;;;;5.37;2.43;;;18.20;51.10;;;;;;10384605;28;20653;-68
2022/10/24 06:29:38;;;;;;;4.53;2.00;;;18.30;51.10;;;;;;10384768;28;20245;-68
2022/10/24 06:34:42;;;;;;;7.70;2.60;;;18.30;50.70;;;;;;10388481;28;20605;-68
2022/10/24 06:39:45;;;;;;;4.83;2.07;;;18.30;51.10;;;;;;10379842;28;20241;-69
2022/10/24 06:44:50;;;;;;;6.20;2.17;;;18.30;50.90;;;;;;10381887;28;20229;-69
2022/10/24 06:49:54;;;;;;;6.03;2.20;;;18.30;51.00;;;;;;10384494;28;20233;-69
2022/10/24 06:54:57;;;;;;;5.00;2.10;;;18.20;51.50;;;;;;10382723;28;20233;-69
2022/10/24 07:00:00;;;;;;;12.80;3.40;;;18.20;51.20;;;;;;10385392;28;20312;-69
2022/10/24 07:05:08;;;;;;;4.47;2.17;;;18.20;51.30;;;;;;10380618;28;20233;-69
2022/10/24 07:10:13;;;;;;;3.47;2.13;;;18.20;51.90;;;;;;10384712;28;20230;-69
2022/10/24 07:15:17;;;;;;;3.57;2.40;;;18.10;51.90;;;;;;10383204;28;20292;-69
2022/10/24 07:20:21;;;;;;;4.37;2.50;;;18.20;51.90;;;;;;10375988;28;20234;-69
2022/10/24 07:25:24;;;;;;;4.87;2.50;;;18.20;52.30;;;;;;10382248;28;20230;-69
2022/10/24 07:30:27;;;;;;;5.30;2.50;;;18.20;52.00;;;;;;10380007;28;20241;-69
2022/10/24 07:35:32;;;;;;;4.10;2.30;;;18.20;52.10;;;;;;10377030;28;20230;-69
2022/10/24 07:40:35;;;;;;;4.97;2.53;;;18.20;52.80;;;;;;10383169;28;20872;-69
2022/10/24 07:45:40;;;;;;;3.93;2.57;;;18.30;52.60;;;;;;10384598;28;20626;-69
2022/10/24 07:50:46;;;;;;;4.33;2.30;;;18.30;53.10;;;;;;10380672;28;20596;-69
2022/10/24 07:55:49;;;;;;;4.17;2.40;;;18.40;53.20;;;;;;10385638;28;20327;-69
2022/10/24 08:00:52;;;;;;;4.80;2.13;;;18.40;52.60;;;;;;10384579;28;20309;-69
2022/10/24 08:05:57;;;;;;;4.97;2.70;;;18.40;52.50;;;;;;10378611;28;20268;-69
2022/10/24 08:11:00;;;;;;;3.33;1.90;;;18.40;52.80;;;;;;10378064;28;20230;-69
2022/10/24 08:16:10;;;;;;;4.10;2.10;;;18.50;52.50;;;;;;10380953;28;20214;-69
2022/10/24 08:21:17;;;;;;;4.30;2.60;;;18.50;52.90;;;;;;10378581;28;20238;-69
2022/10/24 08:26:22;;;;;;;3.63;3.20;;;18.50;53.00;;;;;;10378412;28;20226;-69
2022/10/24 08:31:26;;;;;;;4.90;2.77;;;18.50;52.60;;;;;;10377128;28;20233;-69
2022/10/24 08:36:33;;;;;;;4.40;2.40;;;18.40;52.40;;;;;;10387657;28;20731;-69
2022/10/24 08:41:38;;;;;;;4.93;2.97;;;18.40;53.00;;;;;;10383721;28;20222;-69
2022/10/24 08:46:49;;;;;;;3.50;2.23;;;18.40;53.00;;;;;;10381472;28;20272;-69
2022/10/24 08:51:56;;;;;;;6.50;2.70;;;18.30;53.40;;;;;;10388127;28;20672;-69
2022/10/24 08:57:01;;;;;;;5.73;2.70;;;18.30;53.40;;;;;;10373168;28;20226;-69
2022/10/24 09:02:13;;;;;;;4.40;2.50;;;18.30;53.20;;;;;;10381376;28;20260;-69
2022/10/24 09:07:20;;;;;;;4.67;2.70;;;18.30;53.50;;;;;;10380439;28;20315;-69
2022/10/24 09:12:25;;;;;;;7.87;2.47;;;18.30;53.60;;;;;;10386364;28;20308;-69
2022/10/24 09:17:32;;;;;;;3.53;2.57;;;18.30;53.10;;;;;;10378762;28;20241;-69
2022/10/24 09:22:36;;;;;;;4.80;2.23;;;18.30;53.80;;;;;;10383227;28;20321;-69
2022/10/24 09:27:44;;;;;;;5.97;2.63;;;18.30;53.40;;;;;;10380314;28;20241;-69
2022/10/24 09:32:48;;;;;;;5.53;2.27;;;18.30;53.20;;;;;;10388425;28;20288;-69
2022/10/24 09:37:55;;;;;;;2.93;2.20;;;18.30;53.20;;;;;;10386615;28;20233;-69
2022/10/24 09:43:02;;;;;;;3.47;2.60;;;18.30;53.70;;;;;;10385114;28;20785;-69
2022/10/24 09:48:16;;;;;;;3.13;2.13;;;18.40;53.80;;;;;;10383195;28;20252;-69
2022/10/24 09:53:25;;;;;;;4.13;2.07;;;18.40;53.50;;;;;;10381659;28;20234;-69
2022/10/24 09:58:32;;;;;;;3.60;2.10;;;18.40;53.90;;;;;;10382644;28;20708;-72
2022/10/24 10:03:35;;;;;;;3.37;1.90;;;18.40;53.30;;;;;;10380375;28;20327;-73
2022/10/24 10:08:40;;;;;;;2.77;1.53;;;18.40;53.00;;;;;;10383682;28;20256;-72
2022/10/24 10:13:49;;;;;;;3.30;1.50;;;18.50;53.10;;;;;;10381272;28;20237;-72
2022/10/24 10:19:02;;;;;;;2.93;1.60;;;18.60;53.00;;;;;;10377904;28;20233;-72
2022/10/24 10:24:24;;;;;;;4.57;4.00;;;18.60;53.30;;;;;;10387055;28;20225;-72
2022/10/24 10:29:27;;;;;;;4.27;3.50;;;18.70;53.30;;;;;;10384739;28;20502;-72
2022/10/24 10:34:36;;;;;;;6.43;4.60;;;18.70;52.50;;;;;;10385093;28;20237;-72
2022/10/24 10:40:02;;;;;;;3.73;3.17;;;18.80;53.40;;;;;;10381213;28;20612;-71
2022/10/24 10:45:16;;;;;;;4.50;2.63;;;18.80;53.60;;;;;;10391151;28;20232;-71
2022/10/24 10:50:28;;;;;;;5.30;2.83;;;18.90;53.70;;;;;;10380821;28;20245;-71
2022/10/24 10:55:43;;;;;;;7.20;5.10;;;18.90;53.70;;;;;;10380915;28;20230;-70
2022/10/24 11:00:55;;;;;;;5.60;3.63;;;18.90;54.00;;;;;;10386156;28;20230;-70
2022/10/24 11:06:06;;;;;;;7.90;3.17;;;19.00;53.80;;;;;;10377350;28;20312;-68
2022/10/24 11:11:16;;;;;;;4.50;2.80;;;19.00;54.50;;;;;;10378670;28;20718;-71
2022/10/24 11:16:25;;;;;;;3.77;2.90;;;19.10;54.10;;;;;;10382074;28;20712;-71
2022/10/24 11:21:32;;;;;;;6.67;2.70;;;19.10;53.90;;;;;;10386383;28;20229;-71
2022/10/24 11:26:41;;;;;;;5.87;2.67;;;19.00;53.60;;;;;;10379151;28;20229;-71
2022/10/24 11:31:48;;;;;;;3.00;2.03;;;19.00;53.80;;;;;;10382379;28;20229;-71
2022/10/24 11:37:00;;;;;;;4.00;2.50;;;19.00;53.70;;;;;;10381676;28;20725;-71
2022/10/24 11:42:12;;;;;;;2.67;2.20;;;19.10;53.50;;;;;;10377628;28;20233;-70
2022/10/24 11:47:46;;;;;;;2.77;2.33;;;19.00;53.20;;;;;;10380747;28;20261;-70
2022/10/24 11:52:51;;;;;;;2.87;1.63;;;19.00;53.10;;;;;;10385248;28;20687;-70
2022/10/24 11:57:58;;;;;;;4.40;1.80;;;19.00;52.60;;;;;;10378734;28;20237;-70
2022/10/24 12:03:27;;;;;;;2.93;1.60;;;19.00;52.50;;;;;;10381520;28;20235;-70
2022/10/24 12:08:45;;;;;;;2.87;1.83;;;19.10;52.60;;;;;;10385041;28;20622;-71
2022/10/24 12:14:26;;;;;;;3.00;1.70;;;19.10;52.30;;;;;;10387740;28;20365;-71
2022/10/24 12:19:31;;;;;;;3.30;1.93;;;19.00;52.50;;;;;;10387371;28;20230;-73
2022/10/24 12:24:37;;;;;;;2.63;1.50;;;19.00;52.10;;;;;;10389303;28;20560;-70
2022/10/24 12:29:43;;;;;;;3.40;2.77;;;18.90;52.50;;;;;;10386853;28;20233;-70
2022/10/24 12:34:57;;;;;;;2.40;2.20;;;18.90;52.60;;;;;;10385448;28;20769;-70
2022/10/24 12:40:56;;;;;;;4.73;1.93;;;18.80;52.70;;;;;;10383204;28;20771;-70
2022/10/24 12:46:03;;;;;;;2.67;2.07;;;18.80;52.70;;;;;;10389354;28;20242;-70
2022/10/24 12:51:33;;;;;;;2.07;1.80;;;18.70;52.50;;;;;;10386487;28;20225;-70
2022/10/24 12:56:36;;;;;;;2.80;2.13;;;18.50;52.60;;;;;;10384229;28;20238;-70
2022/10/24 13:01:42;;;;;;;6.07;1.87;;;18.50;52.70;;;;;;10384406;28;20233;-70
2022/10/24 13:06:59;;;;;;;2.63;1.40;;;18.40;52.50;;;;;;10386317;28;20234;-70
2022/10/24 13:12:11;;;;;;;2.87;1.60;;;18.30;52.70;;;;;;10390739;28;20237;-70
2022/10/24 13:17:22;;;;;;;3.43;1.40;;;18.20;52.90;;;;;;10389713;28;20318;-70
2022/10/24 13:22:29;;;;;;;3.13;1.70;;;18.20;53.00;;;;;;10383947;28;20240;-70
2022/10/24 13:27:32;;;;;;;2.37;1.77;;;18.20;53.00;;;;;;10384610;28;20665;-70
2022/10/24 13:32:37;;;;;;;3.23;2.03;;;18.20;52.60;;;;;;10392164;28;20516;-70
2022/10/24 13:37:43;;;;;;;2.37;1.63;;;18.10;52.80;;;;;;10382156;28;20230;-70
2022/10/24 13:42:50;;;;;;;2.40;1.57;;;18.10;53.50;;;;;;10383859;28;20233;-70
2022/10/24 13:48:00;;;;;;;2.83;1.70;;;18.10;53.00;;;;;;10389929;28;20241;-70
2022/10/24 13:53:12;;;;;;;3.23;1.60;;;18.10;53.00;;;;;;10385953;28;20229;-70
2022/10/24 13:58:19;;;;;;;3.53;1.80;;;18.10;52.90;;;;;;10388963;28;20257;-70
2022/10/24 14:03:26;;;;;;;2.53;1.80;;;18.00;52.90;;;;;;10390207;28;20727;-70
2022/10/24 14:08:32;;;;;;;3.23;2.47;;;18.10;52.90;;;;;;10381710;28;20666;-70
2022/10/24 14:13:39;;;;;;;3.10;2.13;;;18.20;52.70;;;;;;10384361;28;20225;-70
2022/10/24 14:18:44;;;;;;;3.57;2.20;;;18.20;52.70;;;;;;10385621;28;20229;-71
2022/10/24 14:23:55;;;;;;;3.40;2.37;;;18.30;52.50;;;;;;10380109;28;21900;-71
2022/10/24 14:28:59;;;;;;;2.47;2.00;;;18.30;52.50;;;;;;10386720;28;20240;-71
2022/10/24 14:34:08;;;;;;;2.47;1.90;;;18.30;51.90;;;;;;10383598;28;20225;-71
2022/10/24 14:39:22;;;;;;;1.97;1.77;;;18.30;52.10;;;;;;10383303;28;20230;-71
2022/10/24 14:44:26;;;;;;;3.10;1.93;;;18.30;52.20;;;;;;10379775;28;20226;-71
2022/10/24 14:49:32;;;;;;;1.50;1.40;;;18.20;52.10;;;;;;10381837;28;20257;-71
2022/10/24 14:54:36;;;;;;;3.87;1.83;;;18.20;52.10;;;;;;10386986;28;20586;-71
2022/10/24 14:59:44;;;;;;;3.37;1.90;;;18.10;52.10;;;;;;10386018;28;20284;-71
2022/10/24 15:04:50;;;;;;;2.23;1.40;;;18.10;52.40;;;;;;10388227;28;20234;-71
2022/10/24 15:09:56;;;;;;;2.20;2.00;;;18.10;52.50;;;;;;10381180;28;20229;-71
2022/10/24 15:15:25;;;;;;;3.87;1.80;;;18.10;52.50;;;;;;10378586;28;20218;-71
2022/10/24 15:20:35;;;;;;;2.40;2.20;;;18.10;52.50;;;;;;10381056;28;20229;-71
2022/10/24 15:25:38;;;;;;;3.23;2.30;;;18.10;52.30;;;;;;10381617;28;20353;-71
2022/10/24 15:30:45;;;;;;;3.03;1.77;;;18.10;52.30;;;;;;10385217;28;20296;-71
2022/10/24 15:35:49;;;;;;;5.67;4.10;;;18.10;52.20;;;;;;10381539;28;20234;-71
2022/10/24 15:40:52;;;;;;;9.47;6.50;;;18.10;52.40;;;;;;10386621;28;20234;-71
2022/10/24 15:45:56;;;;;;;7.97;4.60;;;18.10;52.10;;;;;;10388018;28;20237;-71
2022/10/24 15:51:00;;;;;;;7.60;5.67;;;18.10;52.00;;;;;;10390578;28;20655;-71
2022/10/24 15:56:04;;;;;;;6.97;5.30;;;18.10;52.00;;;;;;10388029;28;20244;-71
2022/10/24 16:01:14;;;;;;;5.30;3.90;;;18.10;51.90;;;;;;10388860;28;20225;-71
2022/10/24 16:06:20;;;;;;;5.33;4.83;;;18.10;51.90;;;;;;10387963;28;20783;-71
2022/10/24 16:11:23;;;;;;;5.30;3.70;;;18.10;51.90;;;;;;10391253;28;20233;-71
2022/10/24 16:16:26;;;;;;;4.87;3.60;;;18.00;51.60;;;;;;10390123;28;20238;-71
2022/10/24 16:21:31;;;;;;;3.70;2.93;;;18.00;51.70;;;;;;10387038;28;20241;-71
2022/10/24 16:26:35;;;;;;;4.80;2.90;;;18.00;51.80;;;;;;10384699;28;20242;-71
2022/10/24 16:31:38;;;;;;;5.37;3.90;;;17.90;51.60;;;;;;10385042;28;20225;-71
2022/10/24 16:36:42;;;;;;;5.40;4.00;;;17.90;51.70;;;;;;10388176;28;20226;-71
2022/10/24 16:41:45;;;;;;;6.67;3.57;;;17.90;51.80;;;;;;10386615;28;20230;-71
2022/10/24 16:46:48;;;;;;;3.17;2.87;;;18.00;51.60;;;;;;10390730;28;20660;-71
2022/10/24 16:51:53;;;;;;;2.30;2.20;;;17.90;51.50;;;;;;10384350;28;20234;-71
2022/10/24 16:56:56;;;;;;;3.47;3.17;;;18.00;51.40;;;;;;10384124;28;20236;-71
2022/10/24 17:02:00;;;;;;;2.60;2.40;;;18.00;51.30;;;;;;10388254;28;20738;-71
2022/10/24 17:07:04;;;;;;;2.97;2.37;;;18.00;51.10;;;;;;10381586;28;20231;-71
2022/10/24 17:12:08;;;;;;;3.30;3.00;;;18.00;51.00;;;;;;10386550;28;20257;-72
2022/10/24 17:17:12;;;;;;;2.73;2.53;;;17.90;50.90;;;;;;10385676;28;20234;-71
2022/10/24 17:22:17;;;;;;;4.03;2.77;;;17.90;50.90;;;;;;10389617;28;20229;-71
2022/10/24 17:27:20;;;;;;;2.97;2.20;;;17.90;50.80;;;;;;10387837;28;20230;-71
2022/10/24 17:32:23;;;;;;;4.53;4.17;;;17.80;50.60;;;;;;10382577;28;20289;-68
2022/10/24 17:37:39;;;;;;;4.40;4.00;;;17.80;50.60;;;;;;10380415;28;20742;-73
2022/10/24 17:42:46;;;;;;;6.07;4.47;;;17.70;50.50;;;;;;10366590;28;20237;-71
2022/10/24 17:47:50;;;;;;;4.67;3.83;;;17.60;50.60;;;;;;10376365;28;20222;-72
2022/10/24 17:52:57;;;;;;;4.20;3.80;;;17.50;50.60;;;;;;10387234;28;20229;-71
2022/10/24 17:58:01;;;;;;;5.57;4.50;;;17.50;50.70;;;;;;10383418;28;20263;-71
2022/10/24 18:03:07;;;;;;;6.73;5.90;;;17.40;50.80;;;;;;10383656;28;20234;-71
2022/10/24 18:08:13;;;;;;;6.50;5.07;;;17.40;50.90;;;;;;10375582;28;20238;-70
2022/10/24 18:13:16;;;;;;;12.47;9.37;;;17.40;50.80;;;;;;10385934;28;20237;-70
2022/10/24 18:18:21;;;;;;;6.83;5.57;;;17.50;50.50;;;;;;10381675;28;20230;-71
2022/10/24 18:23:25;;;;;;;4.97;4.20;;;17.40;50.20;;;;;;10387397;28;20229;-71
2022/10/24 18:28:28;;;;;;;6.17;3.33;;;17.40;50.20;;;;;;10380536;28;20514;-71
2022/10/24 18:33:32;;;;;;;6.23;2.63;;;17.30;50.20;;;;;;10383375;28;20234;-70
2022/10/24 18:38:38;;;;;;;2.43;2.13;;;17.20;50.20;;;;;;10381990;28;20321;-71
2022/10/24 18:43:42;;;;;;;2.93;2.57;;;17.10;50.30;;;;;;10382267;28;20230;-71
2022/10/24 18:48:47;;;;;;;3.93;3.63;;;17.00;50.40;;;;;;10377507;28;20229;-71
2022/10/24 18:53:54;;;;;;;3.50;3.17;;;16.90;50.50;;;;;;10379821;28;20833;-71
2022/10/24 18:58:57;;;;;;;2.60;2.40;;;16.90;50.70;;;;;;10377917;28;20226;-71
2022/10/24 19:04:08;;;;;;;2.60;2.40;;;16.80;50.60;;;;;;10380324;28;20277;-71
2022/10/24 19:09:16;;;;;;;3.27;2.57;;;16.80;50.60;;;;;;10376472;28;20525;-71
2022/10/24 19:14:23;;;;;;;5.10;3.40;;;16.80;50.40;;;;;;10376495;28;20226;-71
2022/10/24 19:19:33;;;;;;;4.90;4.10;;;16.80;50.20;;;;;;10381517;28;20596;-71
2022/10/24 19:24:38;;;;;;;3.70;3.40;;;16.70;50.20;;;;;;10375879;28;20350;-71
2022/10/24 19:29:41;;;;;;;5.17;4.67;;;16.70;50.20;;;;;;10377868;28;20230;-71
2022/10/24 19:34:44;;;;;;;6.10;5.43;;;16.70;50.10;;;;;;10378261;28;20229;-71
2022/10/24 19:39:49;;;;;;;5.43;5.00;;;16.70;49.90;;;;;;10377918;28;20222;-71
2022/10/24 19:44:55;;;;;;;4.40;4.00;;;16.60;49.60;;;;;;10378056;28;20241;-71
2022/10/24 19:49:58;;;;;;;4.37;3.80;;;16.60;49.80;;;;;;10380812;28;20232;-71
2022/10/24 19:55:02;;;;;;;3.63;3.33;;;16.50;49.90;;;;;;10381718;28;20780;-71
2022/10/24 20:00:06;;;;;;;4.70;4.30;;;16.50;49.80;;;;;;10379528;28;20718;-71
2022/10/24 20:05:10;;;;;;;4.83;4.43;;;16.50;49.40;;;;;;10376518;28;20794;-71
2022/10/24 20:10:14;;;;;;;4.90;4.40;;;16.40;49.10;;;;;;10373196;28;20790;-71
2022/10/24 20:15:18;;;;;;;4.80;3.73;;;16.30;49.10;;;;;;10382033;28;20319;-71
2022/10/24 20:20:22;;;;;;;4.80;4.20;;;16.20;49.10;;;;;;10373021;28;20245;-71
2022/10/24 20:25:27;;;;;;;6.67;4.97;;;16.10;49.20;;;;;;10372367;28;20238;-71
2022/10/24 20:30:30;;;;;;;5.07;4.57;;;16.00;49.30;;;;;;10378108;28;20882;-70
2022/10/24 20:35:33;;;;;;;4.87;4.37;;;15.90;49.50;;;;;;10377158;28;20283;-70
2022/10/24 20:40:38;;;;;;;5.27;4.17;;;15.80;49.80;;;;;;10380798;28;20989;-73
2022/10/24 20:45:42;;;;;;;4.07;3.63;;;15.80;49.80;;;;;;10375613;28;20237;-73
2022/10/24 20:50:45;;;;;;;6.33;3.60;;;15.80;50.10;;;;;;10377163;28;20237;-73
2022/10/24 20:55:49;;;;;;;3.33;3.03;;;15.80;50.10;;;;;;10377280;28;21366;-70
2022/10/24 21:00:53;;;;;;;4.57;3.10;;;15.80;50.10;;;;;;10379993;28;20245;-70
2022/10/24 21:05:56;;;;;;;3.13;2.83;;;15.80;49.90;;;;;;10379448;28;20238;-70
2022/10/24 21:11:05;;;;;;;3.90;3.10;;;15.80;49.80;;;;;;10377646;28;20229;-70
2022/10/24 21:16:08;;;;;;;3.57;3.00;;;15.80;49.70;;;;;;10381480;28;20567;-70
2022/10/24 21:21:15;;;;;;;5.20;3.70;;;15.80;49.70;;;;;;10376145;28;20230;-71
2022/10/24 21:26:20;;;;;;;3.63;3.33;;;15.80;49.80;;;;;;10381805;28;20245;-69
2022/10/24 21:31:24;;;;;;;3.73;3.43;;;15.70;49.90;;;;;;10380309;28;20237;-71
2022/10/24 21:36:28;;;;;;;3.37;3.07;;;15.70;50.10;;;;;;10384289;28;20238;-70
2022/10/24 21:41:33;;;;;;;3.60;2.93;;;15.60;50.20;;;;;;10384684;28;20233;-70
2022/10/24 21:46:36;;;;;;;3.07;2.83;;;15.50;50.50;;;;;;10391568;28;20241;-70
2022/10/24 21:51:41;;;;;;;3.73;2.70;;;15.40;50.60;;;;;;10389274;28;20339;-70
2022/10/24 21:56:46;;;;;;;2.70;2.50;;;15.40;50.60;;;;;;10385814;28;20230;-70
2022/10/24 22:01:50;;;;;;;2.80;2.40;;;15.40;51.20;;;;;;10396067;28;20292;-70
2022/10/24 22:06:53;;;;;;;2.93;2.23;;;15.40;51.20;;;;;;10384677;28;20227;-70
2022/10/24 22:11:59;;;;;;;2.50;2.30;;;15.30;51.10;;;;;;10383536;28;20287;-70
2022/10/24 22:17:02;;;;;;;2.53;2.07;;;15.30;51.40;;;;;;10391246;28;20229;-70
2022/10/24 22:22:05;;;;;;;2.77;1.93;;;15.30;51.40;;;;;;10391144;28;21223;-70
2022/10/24 22:27:10;;;;;;;1.70;1.60;;;15.30;51.50;;;;;;10395377;28;20228;-70
2022/10/24 22:32:14;;;;;;;4.37;1.60;;;15.30;51.80;;;;;;10394251;28;20247;-70
2022/10/24 22:37:24;;;;;;;3.00;1.70;;;15.40;51.80;;;;;;10379562;28;20230;-70
2022/10/24 22:42:29;;;;;;;2.60;1.50;;;15.40;52.20;;;;;;10391175;28;20225;-70
2022/10/24 22:47:43;;;;;;;1.40;1.30;;;15.50;51.90;;;;;;10385825;28;20256;-70
2022/10/24 22:52:47;;;;;;;3.37;1.30;;;15.60;52.00;;;;;;10383320;28;20723;-70
2022/10/24 22:57:52;;;;;;;1.63;1.40;;;15.60;51.90;;;;;;10388542;28;20232;-70
2022/10/24 23:03:03;;;;;;;2.33;1.33;;;15.60;52.40;;;;;;10388085;28;20233;-70
2022/10/24 23:08:12;;;;;;;1.93;1.40;;;15.70;52.60;;;;;;10385897;28;20242;-70
2022/10/24 23:13:17;;;;;;;1.10;1.10;;;15.70;52.40;;;;;;10390046;28;20288;-70
2022/10/24 23:18:20;;;;;;;1.13;1.10;;;15.90;52.20;;;;;;10389534;28;20225;-70
2022/10/24 23:23:24;;;;;;;1.50;1.10;;;15.90;51.80;;;;;;10379780;28;20237;-70
2022/10/24 23:28:41;;;;;;;1.30;1.17;;;16.00;51.50;;;;;;10394220;28;20232;-70
2022/10/24 23:33:45;;;;;;;1.43;0.93;;;16.10;51.20;;;;;;10389332;28;20241;-70
2022/10/24 23:38:48;;;;;;;1.50;1.00;;;16.10;51.00;;;;;;10391269;28;20241;-70
2022/10/24 23:43:54;;;;;;;1.10;0.93;;;16.20;50.60;;;;;;10385451;28;20253;-70
2022/10/24 23:49:09;;;;;;;1.87;1.10;;;16.20;50.40;;;;;;10385427;28;20238;-70
2022/10/24 23:54:13;;;;;;;1.20;1.10;;;16.20;50.20;;;;;;10391725;28;20759;-70
2022/10/24 23:59:17;;;;;;;1.10;1.00;;;16.20;50.20;;;;;;10386389;28;20248;-70
